METAR Data
IDs: Format: Raw Decoded Include TAF

Data at: 1428 UTC 15 Nov 2018

MRPV 151400Z 11011KT 9999 FEW035 SCT100 23/17 A3006 NOSIG

MROC 151400Z 11014KT 9999 FEW045 SCT130 25/19 A3001 NOSIG